Birchdale, Minnesota
Current Conditions -  °F | °C
As of 12:53 PM on Sunday 23 Nov 2014 (Local Time) from KBDE Reporting Station
Haze Haze  
Wind Chill: 31°   Ceiling: 500
Heat Index: 35°   Visibility: 3mi
Dew Point: 33°   Wind: 5mph
Humidity: 92%   Direction: 210°SSW
Pressure: 29.38"   Gusts: NA
Location:  48.63°N, 94.1°W
Report Text: KBDE 231853Z AUTO 21004KT 3SM UP BR OVC005 02/01 A2938 RMK AO2 UPB41 SLP961 P0000 T00170006 TSNO
Loading
Personal Weather Stations






























Interactive Weather Map New forecast layout! Learn more

10-Day Weather Forecast

Advertisements
Track Severe Weather on mobile